Elliot Chaparral Reserve, California Weather observations

Data are for 10 minute period ending at time listed.
 Day   Time   Solar   Ave.   Ave.  Ave.  Vector  Max.   Baro.   Total    
  of    of     Rad.   Air    Rel.  Wind   Wind   Wind  Press.  Precip.   
Year   Day            Temp.  Hum.  Speed  Dir.   Gust                    
2014   (PST)  Kw/m2    F      %     mph   deg.    mph    mb.     in.     
-------------------------------------------------------------------------
 108    0:00   0.00   57.4    81    3.0   247     4.5   983.6    0.00 
 108    0:10   0.00   57.5    81    4.5   218     6.0   983.7    0.00 
 108    0:20   0.00   57.5    80    4.1   200     6.0   983.8    0.00 
 108    0:30   0.00   57.6    80    6.0   186     7.9   983.8    0.00 
 108    0:40   0.00   57.7    79    6.5   186     8.6   983.8    0.00 
 108    0:50   0.00   57.7    79    4.3   208     6.7   983.6    0.00 
 108    1:00   0.00   57.6    80    3.2   194     6.1   983.4    0.00 
 108    1:10   0.00   57.6    80    2.3   214     4.2   983.3    0.00 
 108    1:20   0.00   57.5    80    4.4   184     5.9   983.3    0.00 
 108    1:30   0.00   57.5    80    3.6   181     6.1   983.2    0.00 
 108    1:40   0.00   57.5    80    3.3   199     5.3   983.2    0.00 
 108    1:50   0.00   57.5    80    2.4   195     3.4   983.1    0.00 
 108    2:00   0.00   57.5    80    3.6    75     5.6   982.7    0.00 
 108    2:10   0.00   57.4    80    4.6    75     6.7   982.5    0.00 
 108    2:20   0.00   57.4    80    3.4    79     5.8   982.5    0.00 
 108    2:30   0.00   57.4    80    1.4    88     2.6   982.5    0.00 
 108    2:40   0.00   57.5    80    0.3   104     1.6   982.6    0.00 
 108    2:50   0.00   57.5    80    1.3   134     2.3   982.5    0.00 
 108    3:00   0.00   57.5    80    3.6    97     5.2   982.4    0.00 
 108    3:10   0.00   57.6    80    3.1   108     5.0   982.5    0.00 
 108    3:20   0.00   57.6    79    3.6   147     5.4   982.5    0.00 
 108    3:30   0.00   57.6    79    2.8   166     4.1   982.5    0.00 
 108    3:40   0.00   57.5    80    2.9   161     4.7   982.4    0.00 
 108    3:50   0.00   57.4    80    2.1   136     3.1   982.3    0.00 
 108    4:00   0.00   57.3    80    2.2   148     3.4   982.2    0.00 
 108    4:10   0.00   57.1    80    2.3   102     3.4   982.0    0.00 
 108    4:20   0.00   57.1    80    0.7   288     1.9   982.0    0.00 
 108    4:30   0.00   57.2    80    0.6   135     1.6   982.0    0.00 
 108    4:40   0.00   57.1    80    1.3   236     2.6   982.1    0.00 
 108    4:50   0.00   56.9    81    5.1   256     6.9   982.1    0.00 
 108    5:00   0.00   56.8    81    4.7   221     6.7   982.1    0.00 
 108    5:10   0.00   56.8    81    2.5   208     4.2   982.0    0.00 
 108    5:20   0.00   56.7    82    4.3   246     6.0   982.0    0.00 
 108    5:30   0.00   56.7    81    4.2   250     5.6   982.3    0.00 
 108    5:40   0.00   56.8    81    3.8   252     5.8   982.5    0.00 
 108    5:50   0.01   56.9    81    3.8   240     5.6   982.6    0.00 
 108    6:00   0.03   57.0    81    4.4   221     6.9   982.8    0.00 
 108    6:10   0.05   57.7    80    3.5   228     5.2   983.0    0.00 
 108    6:20   0.07   58.2    79    2.5   221     4.2   983.1    0.00 
 108    6:30   0.08   58.6    78    2.9   219     4.5   983.2    0.00 
 108    6:40   0.06   58.8    77    2.6   190     6.3   983.5    0.00 
 108    6:50   0.05   58.8    77    6.3   196     9.6   983.7    0.00 
 108    7:00   0.07   58.7    76    7.5   196    10.3   983.9    0.00 
 108    7:10   0.08   59.0    76    6.4   188     9.2   984.1    0.00 
 108    7:20   0.08   59.3    75    7.3   198    11.0   984.2    0.00 
 108    7:30   0.07   59.1    76    7.8   211     9.9   984.3    0.00 
 108    7:40   0.09   59.1    76    6.8   193     9.1   984.3    0.00 
 108    7:50   0.13   59.6    75    5.1   186     8.2   984.3    0.00 
 108    8:00   0.12   60.1    74    5.9   208     8.8   984.3    0.00 
 108    8:10   0.16   60.5    73    5.9   185     8.6   984.3    0.00 
 108    8:20   0.26   61.1    73    4.7   189     8.3   984.5    0.00 
 108    8:30   0.25   62.2    70    4.4   202     8.8   984.6    0.00 
 108    8:40   0.23   62.0    69    5.3   206     9.1   984.7    0.00 
 108    8:50   0.23   62.0    69    5.4   186     9.6   984.8    0.00 
 108    9:00   0.27   62.4    68    4.6   201     9.3   984.9    0.00 
 108    9:10   0.26   62.9    66    5.7   183     9.2   984.9    0.00 
 108    9:20   0.30   62.8    66    6.3   202     9.1   985.0    0.00 
 108    9:30   0.28   63.4    64    6.1   193    10.5   985.1    0.00 
 108    9:40   0.24   63.2    65    6.5   223    10.8   985.1    0.00 
 108    9:50   0.32   63.8    65    7.3   226    10.7   985.1    0.00 
 108   10:00   0.37   63.8    65    6.8   218    10.3   985.0    0.00 
 108   10:10   0.58   64.4    64    8.5   223    12.5   985.0    0.00 
 108   10:20   0.94   65.8    60    8.7   199    12.8   984.9    0.00 
 108   10:30   0.89   66.5    58    9.1   207    15.1   984.8    0.00 
 108   10:40   0.86   66.0    59    5.7   221     9.6   984.6    0.00 
 108   10:50   0.87   68.1    54    7.4   202    11.3   984.5    0.00 
 108   11:00   0.92   68.2    52    6.7   173    14.3   984.3    0.00 
 108   11:10   0.92   68.7    52    7.0   165    13.7   984.2    0.00 
 108   11:20   0.93   68.3    52    7.5   165    12.7   984.1    0.00 
 108   11:30   0.94   69.7    49    6.2   218    12.9   984.1    0.00 
 108   11:40   0.96   69.1    50    7.4   214    13.9   984.0    0.00 
 108   11:50   0.90   70.9    46    8.2   191    16.7   983.8    0.00 
 108   12:00   0.93   71.6    45    7.3   186    15.9   983.8    0.00 
 108   12:10   1.04   70.9    46    3.1   229    10.9   983.7    0.00 
 108   12:20   0.94   72.8    43    7.1   221    15.0   983.5    0.00 
 108   12:30   0.78   72.8    44    7.7   232    14.8   983.3    0.00 
 108   12:40   0.82   72.4    48   11.5   257    17.0   983.2    0.00 
 108   12:50   0.85   71.1    52   13.4   250    17.4   983.2    0.00 
 108   13:00   0.80   70.4    53   13.6   242    20.5   983.2    0.00 
 108   13:10   0.75   69.5    55   13.8   234    19.6   983.3    0.00 
 108   13:20   0.91   69.6    55   11.6   237    18.8   983.2    0.00 
 108   13:30   0.82   70.1    54   12.7   247    21.0   983.2    0.00 
 108   13:40   0.86   70.1    54   13.9   253    22.2   983.1    0.00 
 108   13:50   0.86   70.4    53   11.9   248    17.6   983.0    0.00 
 108   14:00   0.84   70.7    52   11.5   244    17.2   982.9    0.00 
 108   14:10   0.82   70.0    54    9.6   224    14.5   982.7    0.00 
 108   14:20   0.78   70.2    53   10.3   235    15.2   982.6    0.00 
 108   14:30   0.69   70.2    53    8.3   225    12.8   982.5    0.00 
 108   14:40   0.71   69.5    54   10.8   257    18.0   982.5    0.00 
 108   14:50   0.65   68.8    55   13.7   272    18.6   982.4    0.00 
 108   15:00   0.56   68.4    56   13.2   264    19.1   982.4    0.00 
 108   15:10   0.42   67.0    60   14.5   282    19.3   982.5    0.00 
 108   15:20   0.37   65.8    63   13.8   283    19.1   982.6    0.00 
 108   15:30   0.44   65.0    64   12.8   288    16.4   982.7    0.00 
 108   15:40   0.44   65.9    63   12.6   274    16.4   982.8    0.00 
 108   15:50   0.28   64.6    65   11.9   292    16.6   982.9    0.00 
 108   16:00   0.20   63.6    67   11.5   282    16.2   982.9    0.00 
 108   16:10   0.18   63.0    68   11.7   292    15.3   983.0    0.00 
 108   16:20   0.19   62.7    68   12.8   280    16.1   983.0    0.00 
 108   16:30   0.15   62.3    68   12.0   293    15.7   983.1    0.00 
 108   16:40   0.15   62.0    69   10.6   286    16.7   983.2    0.00 
 108   16:50   0.15   62.5    68    9.2   287    13.4   983.2    0.00 
 108   17:00   0.14   61.9    69   10.8   284    15.1   983.3    0.00 
 108   17:10   0.11   61.7    69    9.1   283    12.3   983.4    0.00 
 108   17:20   0.09   61.2    70   10.0   291    12.6   983.4    0.00 
 108   17:30   0.07   61.3    70    8.6   282    12.1   983.4    0.00 
 108   17:40   0.06   60.8    71    8.4   287    11.9   983.5    0.00 
 108   17:50   0.04   60.7    71    7.4   280     9.9   983.6    0.00 
 108   18:00   0.03   60.7    70    7.3   273    10.2   983.5    0.00 
 108   18:10   0.02   60.6    71    7.5   270    10.1   983.5    0.00 
 108   18:20   0.01   60.5    71    6.6   279    10.0   983.7    0.00 
 108   18:30   0.00   60.2    72    6.8   292     9.8   983.8    0.00 
 108   18:40   0.00   59.8    72    6.7   297     9.1   983.9    0.00 
 108   18:50   0.00   59.7    73    6.3   295     9.2   984.1    0.00 
 108   19:00   0.00   59.8    73    5.5   298     7.9   984.2    0.00 
 108   19:10   0.00   59.6    73    6.5   292     8.7   984.3    0.00 
 108   19:20   0.00   59.6    73    6.1   288     7.5   984.3    0.00 
 108   19:30   0.00   59.5    74    6.0   315     7.7   984.4    0.00 
 108   19:40   0.00   59.4    75    4.5   313     6.6   984.5    0.00 
 108   19:50   0.00   59.3    76    3.8   328     5.4   984.5    0.00 
 108   20:00   0.00   59.2    76    3.0   332     4.2   984.5    0.00 
 108   20:10   0.00   59.3    76    1.9   345     2.8   984.6    0.00 
 108   20:20   0.00   59.1    76    1.6   306     3.2   984.6    0.00 
 108   20:30   0.00   58.8    77    1.5   254     2.8   984.6    0.00 
 108   20:40   0.00   58.4    78    2.3   275     2.9   984.7    0.00 
 108   20:50   0.00   58.4    79    2.1   280     2.7   984.7    0.00 
 108   21:00   0.00   58.3    79    2.3   286     3.2   984.8    0.00 
 108   21:10   0.00   58.0    80    4.4   297     5.7   984.9    0.00 
 108   21:20   0.00   57.8    80    3.7   293     5.3   984.8    0.00 
 108   21:30   0.00   57.6    81    3.7   284     4.3   984.8    0.00 
 108   21:40   0.00   57.5    82    2.9   281     3.7   984.8    0.00 
 108   21:50   0.00   57.3    82    2.0   278     3.2   984.9    0.00 
 108   22:00   0.00   57.6    82    2.8   279     4.2   984.9    0.00 
 108   22:10   0.00   57.8    81    3.8   290     5.1   985.0    0.00 
 108   22:20   0.00   58.0    81    4.6   305     6.3   985.1    0.00 
 108   22:30   0.00   58.3    81    5.7   310     7.2   985.1    0.00 
 108   22:40   0.00   58.5    81    3.7   297     6.4   985.3    0.00 
 108   22:50   0.00   58.6    80    3.0   314     4.3   985.3    0.00 
 108   23:00   0.00   58.7    80    3.4   341     4.1   985.4    0.00 
 108   23:10   0.00   58.7    80    3.3   314     4.6   985.4    0.00 
 108   23:20   0.00   58.7    80    3.1   301     4.5   985.3    0.00 

Return to Elliot Chaparral Reserve graphs page.


Western Regional Climate Center,wrcc@dri.edu